Time;durP1;ratioP1;P1;durP2;ratioP2;P2;SDS_P1;SDS_P2;PMS_P1;PMS_P2;Temp;Humidity;BMP_temperature;BMP_pressure;BME280_temperature;BME280_humidity;BME280_pressure;Samples;Min_cycle;Max_cycle;Signal;HPM_P1;HPM_P2
2020/12/06 00:00:29;;;;;;;37.45;14.38;;;;;;;-1.94;82.82;101082.28;1772350;80;21157;-68
2020/12/06 00:03:06;;;;;;;30.70;14.43;;;;;;;-2.00;82.79;101083.90;1772198;80;21126;-69
2020/12/06 00:05:55;;;;;;;36.90;15.83;;;;;;;-2.01;82.79;101091.67;1770951;80;21097;-69
2020/12/06 00:08:28;;;;;;;30.08;13.95;;;;;;;-2.07;82.57;101098.72;1770713;80;21200;-67
2020/12/06 00:10:57;;;;;;;32.33;15.10;;;;;;;-2.13;82.48;101084.66;1781683;80;21165;-70
2020/12/06 00:13:49;;;;;;;28.57;14.33;;;;;;;-2.16;82.52;101086.37;1767807;80;21160;-68
2020/12/06 00:16:20;;;;;;;29.35;15.32;;;;;;;-2.22;82.32;101083.42;1774889;80;22550;-70
2020/12/06 00:18:51;;;;;;;25.92;13.98;;;;;;;-2.27;82.14;101085.06;1740183;80;21101;-69
2020/12/06 00:21:38;;;;;;;31.68;14.18;;;;;;;-2.33;82.15;101086.66;1768759;80;21580;-68
2020/12/06 00:24:07;;;;;;;31.40;14.93;;;;;;;-2.36;82.20;101090.61;1772184;80;21172;-69
2020/12/06 00:26:39;;;;;;;29.00;13.70;;;;;;;-2.39;81.99;101088.27;1744032;80;21130;-67
2020/12/06 00:29:07;;;;;;;26.42;13.25;;;;;;;-2.42;81.99;101093.25;1777570;80;21519;-69
2020/12/06 00:31:41;;;;;;;29.07;14.68;;;;;;;-2.45;82.12;101089.91;1774973;80;21110;-70
2020/12/06 00:34:13;;;;;;;29.67;13.20;;;;;;;-2.46;81.91;101091.45;1770357;80;21563;-69
2020/12/06 00:36:41;;;;;;;26.00;13.10;;;;;;;-2.49;81.75;101098.05;1771984;80;21134;-68
2020/12/06 00:39:14;;;;;;;30.52;15.05;;;;;;;-2.51;81.59;101096.59;1769537;80;21117;-68
2020/12/06 00:41:52;;;;;;;30.25;14.20;;;;;;;-2.55;81.56;101092.59;1769705;80;21126;-67
2020/12/06 00:44:30;;;;;;;33.00;13.78;;;;;;;-2.57;81.65;101095.49;1767270;80;21090;-68
2020/12/06 00:47:05;;;;;;;29.70;13.62;;;;;;;-2.59;81.49;101089.45;1774847;80;21606;-70
2020/12/06 00:49:35;;;;;;;27.95;13.72;;;;;;;-2.63;81.36;101082.78;1770489;80;21146;-69
2020/12/06 00:52:25;;;;;;;32.35;13.55;;;;;;;-2.65;81.33;101083.48;1770874;80;21148;-68
2020/12/06 00:54:55;;;;;;;22.52;12.37;;;;;;;-2.66;81.30;101079.12;1773720;79;21607;-68
2020/12/06 00:57:43;;;;;;;29.55;13.20;;;;;;;-2.69;81.13;101077.63;1744046;80;21139;-69
2020/12/06 01:00:16;;;;;;;33.75;13.85;;;;;;;-2.72;81.01;101086.97;1770288;80;21209;-68
2020/12/06 01:02:45;;;;;;;27.50;14.68;;;;;;;-2.76;80.91;101083.50;1774447;80;21239;-68
2020/12/06 01:05:16;;;;;;;29.45;13.18;;;;;;;-2.78;80.83;101089.06;1775749;80;21133;-68
2020/12/06 01:07:46;;;;;;;25.75;13.40;;;;;;;-2.83;80.73;101084.75;1769854;80;21129;-67
2020/12/06 01:10:25;;;;;;;25.43;12.73;;;;;;;-2.87;80.63;101082.98;1776355;80;21122;-69
2020/12/06 01:12:52;;;;;;;25.00;13.13;;;;;;;-2.88;80.73;101083.98;1775780;80;21644;-67
2020/12/06 01:15:28;;;;;;;28.85;13.45;;;;;;;-2.88;80.71;101077.78;1773721;80;21145;-68
2020/12/06 01:17:59;;;;;;;25.85;13.30;;;;;;;-2.88;80.54;101079.12;1770647;80;21559;-67
2020/12/06 01:20:30;;;;;;;28.70;13.35;;;;;;;-2.89;80.52;101074.73;1773081;80;21104;-67
2020/12/06 01:22:59;;;;;;;23.18;11.75;;;;;;;-2.91;80.29;101081.68;1776029;80;21113;-68
2020/12/06 01:25:29;;;;;;;32.15;13.43;;;;;;;-2.95;80.06;101077.71;1770308;80;22135;-68
2020/12/06 01:27:58;;;;;;;30.62;12.82;;;;;;;-2.99;79.94;101079.95;1770503;80;21160;-69
2020/12/06 01:30:27;;;;;;;25.00;11.95;;;;;;;-3.01;79.90;101084.70;1769991;80;21114;-68
2020/12/06 01:32:56;;;;;;;25.75;11.50;;;;;;;-3.03;79.91;101085.39;1775036;80;21128;-67
2020/12/06 01:35:25;;;;;;;25.88;13.08;;;;;;;-3.03;79.84;101080.50;1776905;80;21129;-67
2020/12/06 01:37:53;;;;;;;27.27;12.47;;;;;;;-3.06;79.63;101079.88;1775517;80;21594;-67
2020/12/06 01:40:28;;;;;;;25.88;12.13;;;;;;;-3.06;79.71;101087.13;1777769;80;21145;-68
2020/12/06 01:43:17;;;;;;;26.65;13.35;;;;;;;-3.08;79.64;101087.32;1772268;80;21166;-67
2020/12/06 01:45:48;;;;;;;31.80;12.60;;;;;;;-3.11;79.34;101086.86;1769919;80;21645;-67
2020/12/06 01:48:15;;;;;;;30.27;12.80;;;;;;;-3.14;79.22;101084.55;1780171;80;21109;-67
2020/12/06 01:50:48;;;;;;;31.80;13.85;;;;;;;-3.18;79.16;101086.79;1777933;80;21376;-67
2020/12/06 01:53:15;;;;;;;32.20;12.33;;;;;;;-3.21;79.02;101085.29;1754437;80;21578;-66
2020/12/06 01:55:50;;;;;;;29.00;12.50;;;;;;;-3.25;78.96;101089.91;1786045;79;21156;-67
2020/12/06 01:58:24;;;;;;;30.17;11.75;;;;;;;-3.30;78.89;101085.94;1780552;80;21578;-67
2020/12/06 02:00:51;;;;;;;25.70;12.55;;;;;;;-3.32;78.96;101091.18;1774506;80;21166;-66
2020/12/06 02:03:22;;;;;;;31.17;13.65;;;;;;;-3.32;78.91;101087.14;1763115;80;21358;-67
2020/12/06 02:05:50;;;;;;;23.55;11.10;;;;;;;-3.33;78.92;101088.17;1705480;81;21096;-69
2020/12/06 02:08:25;;;;;;;24.10;11.40;;;;;;;-3.32;78.84;101092.52;1700031;83;21136;-67
2020/12/06 02:11:06;;;;;;;30.68;11.95;;;;;;;-3.33;78.75;101083.63;1719006;82;21177;-67
2020/12/06 02:13:38;;;;;;;23.07;11.33;;;;;;;-3.36;78.56;101085.33;1696508;84;21586;-67
2020/12/06 02:16:08;;;;;;;27.70;12.30;;;;;;;-3.38;78.63;101088.74;1698811;84;22499;-67
2020/12/06 02:18:39;;;;;;;26.10;11.10;;;;;;;-3.38;78.49;101083.85;1641502;84;21139;-67
2020/12/06 02:21:10;;;;;;;21.35;9.73;;;;;;;-3.40;78.40;101090.78;1694828;84;21136;-67
2020/12/06 02:23:42;;;;;;;22.77;10.60;;;;;;;-3.43;78.16;101090.63;1672712;84;21154;-68
2020/12/06 02:26:11;;;;;;;22.15;10.05;;;;;;;-3.41;78.21;101091.80;1695177;84;21152;-68
2020/12/06 02:28:46;;;;;;;21.23;10.28;;;;;;;-3.40;77.84;101092.13;1698719;84;21553;-68
2020/12/06 02:31:16;;;;;;;22.45;10.48;;;;;;;-3.40;77.67;101090.78;1673351;84;21139;-66
2020/12/06 02:33:45;;;;;;;20.37;9.75;;;;;;;-3.39;77.63;101095.64;1698235;84;21604;-67
2020/12/06 02:36:19;;;;;;;26.95;10.00;;;;;;;-3.37;77.57;101099.84;1706984;83;21573;-67
2020/12/06 02:38:54;;;;;;;18.67;9.13;;;;;;;-3.37;77.34;101088.21;1706347;83;21629;-67
2020/12/06 02:41:45;;;;;;;18.17;9.30;;;;;;;-3.37;77.11;101095.80;1708587;83;21376;-68
2020/12/06 02:44:14;;;;;;;22.67;9.48;;;;;;;-3.40;77.01;101096.17;1705014;83;21128;-68
2020/12/06 02:47:03;;;;;;;18.10;9.73;;;;;;;-3.40;77.04;101093.48;1696879;84;21144;-68
2020/12/06 02:49:33;;;;;;;27.32;11.22;;;;;;;-3.42;76.57;101099.56;1695726;83;21157;-68
2020/12/06 02:52:05;;;;;;;20.45;9.48;;;;;;;-3.45;76.67;101095.91;1718674;83;21127;-68
2020/12/06 02:54:37;;;;;;;27.73;10.80;;;;;;;-3.45;76.82;101100.80;1715949;83;21160;-69
2020/12/06 02:57:08;;;;;;;19.02;9.30;;;;;;;-3.46;76.66;101100.95;1718508;83;21216;-68
2020/12/06 02:59:42;;;;;;;21.62;9.53;;;;;;;-3.49;76.66;101099.48;1718632;83;21111;-69
2020/12/06 03:02:11;;;;;;;21.48;9.28;;;;;;;-3.51;76.59;101096.12;1714528;83;21180;-69
2020/12/06 03:04:40;;;;;;;21.33;10.40;;;;;;;-3.54;76.55;101091.12;1718380;82;21114;-69
2020/12/06 03:07:09;;;;;;;19.30;9.18;;;;;;;-3.56;76.46;101099.39;1779266;80;21609;-69
2020/12/06 03:09:39;;;;;;;24.65;10.50;;;;;;;-3.59;76.45;101097.58;1773764;80;21657;-69
2020/12/06 03:12:14;;;;;;;18.00;9.00;;;;;;;-3.64;76.27;101102.19;1770387;80;21138;-68
2020/12/06 03:14:46;;;;;;;20.48;9.70;;;;;;;-3.70;76.14;101103.77;1772683;80;21149;-69
2020/12/06 03:17:18;;;;;;;20.75;9.28;;;;;;;-3.73;76.24;101110.03;1773831;80;21153;-69
2020/12/06 03:19:45;;;;;;;25.25;9.68;;;;;;;-3.75;76.16;101107.52;1774604;80;21273;-69
2020/12/06 03:22:14;;;;;;;18.87;9.45;;;;;;;-3.79;75.99;101116.48;1768089;80;21130;-70
2020/12/06 03:24:45;;;;;;;20.45;8.85;;;;;;;-3.81;76.01;101121.75;1744859;80;21149;-69
2020/12/06 03:27:35;;;;;;;21.55;9.50;;;;;;;-3.86;76.01;101125.50;1741658;80;21579;-69
2020/12/06 03:30:21;;;;;;;22.80;9.30;;;;;;;-3.88;76.15;101124.84;1774989;80;21089;-69
2020/12/06 03:32:50;;;;;;;19.92;9.38;;;;;;;-3.91;76.17;101130.92;1775197;80;21480;-68
2020/12/06 03:35:18;;;;;;;19.92;9.53;;;;;;;-3.94;76.08;101135.33;1772388;80;21141;-68
2020/12/06 03:37:52;;;;;;;23.70;9.00;;;;;;;-3.98;75.97;101133.20;1776492;80;21111;-68
2020/12/06 03:40:26;;;;;;;22.15;9.20;;;;;;;-4.02;76.07;101135.42;1768847;80;21180;-70
2020/12/06 03:42:56;;;;;;;26.35;9.63;;;;;;;-4.03;76.15;101139.14;1768639;80;21574;-68
2020/12/06 03:45:31;;;;;;;15.68;8.93;;;;;;;-4.00;76.16;101145.50;1775179;80;21157;-69
2020/12/06 03:47:58;;;;;;;18.42;8.73;;;;;;;-4.01;76.00;101150.58;1773312;80;21141;-69
2020/12/06 03:50:29;;;;;;;19.65;8.68;;;;;;;-4.03;75.76;101144.53;1772246;80;22169;-70
2020/12/06 03:53:04;;;;;;;15.48;8.88;;;;;;;-4.07;75.74;101143.20;1772917;80;21623;-69
2020/12/06 03:55:35;;;;;;;16.77;7.95;;;;;;;-4.10;75.79;101146.27;1774520;79;21109;-68
2020/12/06 03:58:07;;;;;;;14.83;7.47;;;;;;;-4.12;75.81;101148.30;1770613;80;21193;-68
2020/12/06 04:00:35;;;;;;;19.87;8.90;;;;;;;-4.14;75.65;101149.02;1774150;80;21156;-69
2020/12/06 04:03:27;;;;;;;22.65;8.50;;;;;;;-4.20;75.50;101150.06;1769286;80;21160;-69
2020/12/06 04:05:55;;;;;;;17.40;8.15;;;;;;;-4.25;75.61;101150.27;1778926;80;21096;-69
2020/12/06 04:08:32;;;;;;;19.40;8.73;;;;;;;-4.26;75.67;101152.12;1773221;80;21097;-70
2020/12/06 04:11:00;;;;;;;25.75;9.90;;;;;;;-4.29;75.75;101149.30;1779628;80;21424;-68
2020/12/06 04:13:28;;;;;;;16.25;8.43;;;;;;;-4.29;75.78;101153.33;1778027;80;21538;-70
2020/12/06 04:16:01;;;;;;;23.20;10.03;;;;;;;-4.31;75.67;101151.32;1778100;80;21121;-70
2020/12/06 04:18:30;;;;;;;22.95;8.80;;;;;;;-4.33;75.66;101155.23;1772856;80;21607;-69
2020/12/06 04:20:57;;;;;;;21.12;9.43;;;;;;;-4.35;75.65;101158.07;1768873;80;21574;-69
2020/12/06 04:23:28;;;;;;;17.32;7.50;;;;;;;-4.36;75.54;101149.68;1776837;80;21547;-69
2020/12/06 04:26:00;;;;;;;17.07;8.78;;;;;;;-4.36;75.44;101151.52;1770592;80;21495;-69
2020/12/06 04:28:35;;;;;;;19.77;8.53;;;;;;;-4.36;75.66;101156.91;1770207;80;21599;-69
2020/12/06 04:31:05;;;;;;;19.23;7.67;;;;;;;-4.34;75.57;101151.69;1776259;80;21122;-69
2020/12/06 04:33:34;;;;;;;16.93;8.48;;;;;;;-4.34;75.26;101152.19;1701521;83;21208;-69
2020/12/06 04:36:24;;;;;;;26.48;8.93;;;;;;;-4.33;75.38;101153.88;1710094;83;21640;-67
2020/12/06 04:38:52;;;;;;;18.05;8.20;;;;;;;-4.33;75.26;101160.08;1735715;82;21182;-69
2020/12/06 04:41:31;;;;;;;14.78;7.78;;;;;;;-4.32;75.26;101160.93;1715198;83;21146;-67
2020/12/06 04:44:03;;;;;;;18.23;9.15;;;;;;;-4.33;75.10;101156.58;1717442;82;22605;-69
2020/12/06 04:46:38;;;;;;;17.70;8.88;;;;;;;-4.34;74.92;101148.16;1702917;82;21184;-69
2020/12/06 04:49:42;;;;;;;16.15;7.83;;;;;;;-4.37;74.94;101149.36;1716686;83;21632;-69
2020/12/06 04:52:44;;;;;;;14.80;7.25;;;;;;;-4.37;74.92;101153.91;1711633;83;21122;-68
2020/12/06 04:55:12;;;;;;;14.18;7.28;;;;;;;-4.39;74.72;101148.70;1713189;82;21197;-67
2020/12/06 04:57:42;;;;;;;15.43;7.55;;;;;;;-4.39;74.79;101154.08;1718149;83;21152;-67
2020/12/06 05:00:19;;;;;;;16.45;7.40;;;;;;;-4.39;74.74;101160.81;1702302;83;21146;-68
2020/12/06 05:02:47;;;;;;;16.55;8.00;;;;;;;-4.38;74.57;101150.36;1705967;83;22031;-68
2020/12/06 05:05:41;;;;;;;20.72;10.00;;;;;;;-4.37;74.40;101160.62;1733375;82;21117;-67
2020/12/06 05:08:11;;;;;;;23.85;9.88;;;;;;;-4.38;74.30;101156.28;1734044;82;21177;-69
2020/12/06 05:10:49;;;;;;;21.23;9.73;;;;;;;-4.41;74.18;101166.38;1733407;82;21161;-67
2020/12/06 05:13:18;;;;;;;29.00;11.00;;;;;;;-4.44;74.11;101157.33;1739062;82;21594;-68
2020/12/06 05:16:08;;;;;;;18.82;7.85;;;;;;;-4.47;74.12;101167.08;1714785;83;21505;-67
2020/12/06 05:18:57;;;;;;;15.50;7.65;;;;;;;-4.46;74.17;101164.73;1712675;83;21157;-67
2020/12/06 05:21:41;;;;;;;14.40;8.25;;;;;;;-4.47;74.02;101172.98;1693677;83;21181;-68
2020/12/06 05:24:14;;;;;;;17.82;7.28;;;;;;;-4.49;73.94;101170.48;1708042;83;21213;-68
2020/12/06 05:26:44;;;;;;;20.35;7.37;;;;;;;-4.49;73.94;101170.98;1719332;83;21118;-69
2020/12/06 05:29:32;;;;;;;17.65;7.00;;;;;;;-4.49;73.89;101166.44;1710000;83;21238;-67
2020/12/06 05:32:05;;;;;;;15.70;7.53;;;;;;;-4.49;73.93;101173.67;1719593;83;21176;-67
2020/12/06 05:34:35;;;;;;;14.87;6.78;;;;;;;-4.48;73.71;101178.02;1680368;83;21108;-67
2020/12/06 05:37:07;;;;;;;14.33;7.95;;;;;;;-4.53;73.72;101171.34;1714127;83;21578;-68
2020/12/06 05:40:05;;;;;;;18.77;7.85;;;;;;;-4.53;73.62;101171.34;1721725;83;21624;-67
2020/12/06 05:42:34;;;;;;;19.67;8.73;;;;;;;-4.54;73.58;101170.17;1723593;83;21342;-68
2020/12/06 05:45:04;;;;;;;21.20;8.55;;;;;;;-4.56;73.41;101169.52;1720153;83;21168;-68
2020/12/06 05:47:33;;;;;;;13.25;8.00;;;;;;;-4.62;73.44;101171.05;1720995;83;21160;-68
2020/12/06 05:50:16;;;;;;;23.18;10.35;;;;;;;-4.64;73.35;101173.11;1716270;83;21141;-68
2020/12/06 05:52:43;;;;;;;18.80;8.85;;;;;;;-4.65;73.26;101170.91;1723446;83;21109;-66
2020/12/06 05:55:16;;;;;;;;;;;;;;;-4.65;73.28;101176.80;1693123;83;21152;-67
2020/12/06 05:57:47;;;;;;;16.82;7.45;;;;;;;-4.65;73.19;101178.14;1719170;83;20464;-68
2020/12/06 06:00:18;;;;;;;16.15;7.85;;;;;;;-4.67;73.19;101174.28;1721279;83;21136;-69
2020/12/06 06:03:09;;;;;;;20.65;7.92;;;;;;;-4.69;73.10;101183.56;1715311;83;21146;-68
2020/12/06 06:05:36;;;;;;;13.70;7.85;;;;;;;-4.70;73.20;101181.38;1708440;83;21135;-68
2020/12/06 06:08:28;;;;;;;23.80;8.80;;;;;;;-4.71;73.23;101185.09;1711791;83;21216;-69
2020/12/06 06:11:10;;;;;;;14.47;7.03;;;;;;;-4.67;73.32;101186.89;1718402;83;21179;-68
2020/12/06 06:13:59;;;;;;;16.52;7.70;;;;;;;-4.66;73.22;101185.36;1712244;83;21615;-68
2020/12/06 06:16:29;;;;;;;23.92;7.97;;;;;;;-4.62;73.19;101192.58;1716157;83;21218;-68
2020/12/06 06:19:16;;;;;;;17.15;8.13;;;;;;;-4.60;73.01;101188.36;1695126;83;21177;-68
2020/12/06 06:21:49;;;;;;;17.65;8.23;;;;;;;-4.57;72.89;101194.77;1716438;83;21464;-68
2020/12/06 06:24:25;;;;;;;21.23;8.15;;;;;;;-4.54;72.94;101199.25;1718466;83;21129;-69
2020/12/06 06:26:56;;;;;;;17.12;8.88;;;;;;;-4.50;72.82;101201.08;1718692;83;21152;-69
2020/12/06 06:29:26;;;;;;;21.17;8.50;;;;;;;-4.49;72.73;101200.09;1718731;83;21103;-69
2020/12/06 06:32:19;;;;;;;24.55;9.48;;;;;;;-4.49;72.79;101205.47;1694286;83;21673;-68
2020/12/06 06:34:57;;;;;;;24.65;9.98;;;;;;;-4.46;72.59;101206.95;1692846;83;21443;-68
2020/12/06 06:37:30;;;;;;;21.80;10.00;;;;;;;-4.45;72.58;101201.38;1674082;83;21558;-69
2020/12/06 06:40:20;;;;;;;18.07;9.93;;;;;;;-4.41;72.50;101205.91;1713311;83;21125;-69
2020/12/06 06:42:57;;;;;;;20.30;9.80;;;;;;;-4.36;72.53;101206.71;1660563;83;21142;-70
2020/12/06 06:46:13;;;;;;;18.48;8.28;;;;;;;-4.33;72.41;101210.41;1714723;83;21180;-68
2020/12/06 06:49:22;;;;;;;18.77;8.68;;;;;;;-4.31;72.16;101209.20;1712805;82;21121;-68
2020/12/06 06:52:12;;;;;;;18.15;8.85;;;;;;;-4.29;72.20;101206.33;1717525;83;21323;-68
2020/12/06 06:54:41;;;;;;;18.00;8.20;;;;;;;-4.24;72.26;101207.13;1714859;83;21638;-69
2020/12/06 06:57:10;;;;;;;21.30;8.78;;;;;;;-4.23;72.27;101199.41;1718648;83;21198;-68
2020/12/06 06:59:47;;;;;;;13.98;7.37;;;;;;;-4.19;72.29;101204.23;1714671;83;21113;-68
2020/12/06 07:02:39;;;;;;;21.87;8.93;;;;;;;-4.18;72.22;101201.86;1713708;83;21220;-68
2020/12/06 07:05:18;;;;;;;18.07;8.75;;;;;;;-4.14;72.39;101204.22;1714919;83;21142;-69
2020/12/06 07:07:49;;;;;;;17.82;8.43;;;;;;;-4.10;72.28;101206.86;1701626;83;21558;-69
2020/12/06 07:10:23;;;;;;;22.17;7.87;;;;;;;-4.06;72.25;101201.45;1702711;83;21109;-70
2020/12/06 07:12:59;;;;;;;16.42;8.10;;;;;;;-4.01;72.14;101203.59;1707289;83;21153;-71
2020/12/06 07:15:29;;;;;;;20.00;9.25;;;;;;;-4.00;72.06;101202.06;1707758;83;21430;-70
2020/12/06 07:18:39;;;;;;;23.25;8.43;;;;;;;-3.97;72.06;101207.59;1703868;83;21154;-68
2020/12/06 07:21:07;;;;;;;17.55;7.72;;;;;;;-3.91;72.12;101217.66;1709013;83;21596;-67
2020/12/06 07:23:49;;;;;;;18.35;9.23;;;;;;;-3.86;72.08;101217.95;1706810;83;21282;-67
2020/12/06 07:26:18;;;;;;;16.17;8.18;;;;;;;-3.83;72.01;101218.92;1695199;83;21108;-68
2020/12/06 07:29:06;;;;;;;17.55;8.05;;;;;;;-3.78;71.99;101226.45;1700662;83;21232;-68
2020/12/06 07:31:46;;;;;;;22.93;8.08;;;;;;;-3.72;71.82;101219.51;1706805;83;21160;-68
2020/12/06 07:34:17;;;;;;;17.70;8.63;;;;;;;-3.69;71.85;101215.94;1706754;83;21165;-69
2020/12/06 07:37:06;;;;;;;14.10;7.08;;;;;;;-3.63;71.85;101232.41;1689011;83;21140;-70
2020/12/06 07:39:56;;;;;;;20.37;8.05;;;;;;;-3.58;71.94;101225.42;1706593;83;21157;-68
2020/12/06 07:42:29;;;;;;;19.62;9.48;;;;;;;-3.52;71.66;101230.59;1705319;83;21437;-69
2020/12/06 07:45:00;;;;;;;20.08;8.85;;;;;;;-3.47;71.65;101230.88;1706651;83;21145;-68
2020/12/06 07:47:28;;;;;;;16.57;8.28;;;;;;;-3.39;71.48;101233.14;1713675;83;21195;-68
2020/12/06 07:49:59;;;;;;;19.55;8.15;;;;;;;-3.34;71.27;101232.08;1707695;83;21646;-68
2020/12/06 07:52:35;;;;;;;19.75;8.95;;;;;;;-3.30;71.35;101230.70;1711303;83;21136;-68
2020/12/06 07:55:10;;;;;;;22.87;10.30;;;;;;;-3.25;71.33;101231.48;1713575;83;21421;-68
2020/12/06 07:57:48;;;;;;;26.65;10.40;;;;;;;-3.21;71.26;101228.22;1708466;83;21151;-67
2020/12/06 08:00:39;;;;;;;19.23;9.30;;;;;;;-3.13;71.36;101227.81;1713997;83;21173;-68
2020/12/06 08:03:09;;;;;;;17.00;9.68;;;;;;;-3.04;71.41;101228.56;1690026;83;21111;-67
2020/12/06 08:05:40;;;;;;;;;;;;;;;-2.96;71.31;101226.60;1712102;83;21620;-68
2020/12/06 08:08:20;;;;;;;21.77;8.45;;;;;;;-2.89;71.14;101221.80;1715315;83;20550;-68
2020/12/06 08:10:54;;;;;;;25.57;9.15;;;;;;;-2.82;71.08;101224.92;1775610;80;21105;-68
2020/12/06 08:13:26;;;;;;;15.70;7.87;;;;;;;-2.74;71.02;101234.75;1709754;81;21159;-67
2020/12/06 08:16:13;;;;;;;22.58;8.45;;;;;;;-2.67;70.72;101229.94;1717988;82;21604;-68
2020/12/06 08:18:44;;;;;;;20.23;8.30;;;;;;;-2.61;70.74;101232.72;1779394;80;21145;-68
2020/12/06 08:21:12;;;;;;;18.40;7.92;;;;;;;-2.54;70.72;101235.49;1775918;80;21526;-67
2020/12/06 08:24:03;;;;;;;16.48;7.67;;;;;;;-2.46;70.37;101230.50;1765393;80;21173;-68
2020/12/06 08:26:38;;;;;;;17.70;7.97;;;;;;;-2.38;69.79;101237.13;1775520;80;21193;-67
2020/12/06 08:29:06;;;;;;;19.75;8.40;;;;;;;-2.39;69.20;101235.44;1780538;80;21141;-67
2020/12/06 08:32:06;;;;;;;15.80;6.70;;;;;;;-2.37;69.15;101239.33;1754484;80;21148;-68
2020/12/06 08:34:35;;;;;;;21.45;8.70;;;;;;;-2.29;69.00;101227.05;1774889;80;21939;-68
2020/12/06 08:37:25;;;;;;;17.62;8.08;;;;;;;-2.24;68.96;101216.51;1773568;80;21590;-68
2020/12/06 08:40:13;;;;;;;16.27;7.03;;;;;;;-2.15;68.68;101228.00;1750877;80;21131;-68
2020/12/06 08:43:00;;;;;;;16.42;7.08;;;;;;;-2.09;68.70;101222.34;1775601;80;21590;-68
2020/12/06 08:45:29;;;;;;;16.37;7.83;;;;;;;-2.03;68.60;101218.86;1743079;80;21121;-68
2020/12/06 08:48:01;;;;;;;16.23;7.70;;;;;;;-1.96;68.30;101218.41;1771582;80;21447;-69
2020/12/06 08:50:48;;;;;;;19.62;8.03;;;;;;;-1.88;68.07;101217.96;1769013;80;21141;-68
2020/12/06 08:53:17;;;;;;;19.87;8.90;;;;;;;-1.82;67.73;101224.44;1771156;79;21609;-68
2020/12/06 08:55:46;;;;;;;20.50;8.65;;;;;;;-1.77;67.73;101209.81;1748928;80;21607;-67
2020/12/06 08:58:33;;;;;;;17.50;8.25;;;;;;;-1.69;67.33;101212.41;1782510;80;21240;-68
2020/12/06 09:01:02;;;;;;;26.37;8.05;;;;;;;-1.63;67.38;101212.11;1767771;80;21371;-69
2020/12/06 09:03:53;;;;;;;16.02;7.30;;;;;;;-1.56;66.91;101222.47;1769534;80;21722;-68
2020/12/06 09:07:00;;;;;;;17.05;7.78;;;;;;;-1.48;66.68;101223.67;1771368;80;21164;-68
2020/12/06 09:09:47;;;;;;;16.48;7.50;;;;;;;-1.43;66.38;101215.49;1772372;80;21162;-68
2020/12/06 09:12:17;;;;;;;17.65;8.58;;;;;;;-1.37;66.20;101215.53;1771751;80;21138;-67
2020/12/06 09:14:47;;;;;;;19.07;8.58;;;;;;;-1.31;66.24;101215.77;1774165;80;21292;-68
2020/12/06 09:17:35;;;;;;;16.82;8.78;;;;;;;-1.25;66.27;101206.34;1773167;80;21189;-68
2020/12/06 09:20:05;;;;;;;21.30;7.95;;;;;;;-1.17;66.01;101215.31;1770799;80;21136;-68
2020/12/06 09:22:53;;;;;;;15.83;9.10;;;;;;;-1.10;66.27;101214.83;1772350;80;21131;-68
2020/12/06 09:25:21;;;;;;;20.17;8.80;;;;;;;-1.01;66.17;101210.91;1768454;80;21138;-68
2020/12/06 09:28:15;;;;;;;20.88;9.20;;;;;;;-0.92;66.02;101212.13;1773566;80;21198;-68
2020/12/06 09:31:03;;;;;;;19.40;8.33;;;;;;;-0.81;66.23;101209.34;1753293;80;21515;-68
2020/12/06 09:33:33;;;;;;;17.75;10.30;;;;;;;-0.70;66.22;101204.68;1768124;80;21142;-68
2020/12/06 09:36:29;;;;;;;25.45;11.40;;;;;;;-0.61;65.94;101212.11;1758392;80;21198;-69
2020/12/06 09:39:06;;;;;;;25.23;12.35;;;;;;;-0.51;65.72;101212.56;1770566;80;21125;-67
2020/12/06 09:42:01;;;;;;;25.90;10.45;;;;;;;-0.43;65.43;101205.29;1769174;80;21424;-68
2020/12/06 09:44:28;;;;;;;23.98;10.58;;;;;;;-0.35;65.26;101201.03;1774965;80;21164;-67
2020/12/06 09:46:58;;;;;;;21.60;9.58;;;;;;;-0.28;65.27;101200.53;1770980;80;21613;-68
2020/12/06 09:49:42;;;;;;;22.77;10.28;;;;;;;-0.21;65.22;101195.12;1771883;80;21161;-67
2020/12/06 09:52:14;;;;;;;24.50;9.38;;;;;;;-0.13;64.79;101199.49;1769056;80;21137;-68
2020/12/06 09:54:42;;;;;;;22.98;9.45;;;;;;;-0.09;64.52;101193.98;1774533;80;21369;-65
2020/12/06 09:57:09;;;;;;;23.52;9.85;;;;;;;-0.05;64.12;101193.05;1773143;80;21110;-67
2020/12/06 09:59:37;;;;;;;23.22;9.03;;;;;;;-0.04;63.39;101196.91;1761520;80;21138;-67
2020/12/06 10:02:06;;;;;;;27.37;10.28;;;;;;;-0.08;63.45;101194.29;1756991;80;21157;-67
2020/12/06 10:04:34;;;;;;;21.60;9.90;;;;;;;-0.06;62.93;101194.92;1764382;80;21225;-68
2020/12/06 10:07:02;;;;;;;27.80;9.08;;;;;;;-0.08;62.41;101192.94;1778008;80;22010;-68
2020/12/06 10:09:42;;;;;;;20.10;8.93;;;;;;;-0.10;62.62;101190.13;1776431;80;21137;-67
2020/12/06 10:12:20;;;;;;;15.10;8.03;;;;;;;-0.06;62.78;101183.23;1765257;80;21165;-68
2020/12/06 10:15:10;;;;;;;21.48;8.23;;;;;;;-0.01;62.37;101178.03;1747111;80;21110;-67
2020/12/06 10:17:38;;;;;;;18.20;10.35;;;;;;;-0.01;61.99;101178.88;1760601;80;22190;-67
2020/12/06 10:20:30;;;;;;;15.05;7.83;;;;;;;-0.01;62.20;101180.23;1734636;80;21202;-67
2020/12/06 10:22:57;;;;;;;23.47;9.30;;;;;;;0.05;62.27;101179.08;1764549;80;21180;-67
2020/12/06 10:25:27;;;;;;;18.55;9.03;;;;;;;0.11;61.75;101182.30;1773433;80;21129;-67
2020/12/06 10:27:58;;;;;;;19.90;8.83;;;;;;;0.11;61.54;101177.72;1776980;80;21565;-67
2020/12/06 10:30:31;;;;;;;20.37;9.83;;;;;;;0.15;61.78;101172.72;1771182;80;21099;-68
2020/12/06 10:33:14;;;;;;;20.27;9.68;;;;;;;0.23;62.04;101176.57;1752353;80;21401;-67
2020/12/06 10:35:44;;;;;;;26.02;10.70;;;;;;;0.30;61.55;101177.92;1760271;80;21582;-67
2020/12/06 10:38:14;;;;;;;19.48;9.08;;;;;;;0.37;61.80;101173.84;1752119;80;21515;-68
2020/12/06 10:40:51;;;;;;;20.65;8.60;;;;;;;0.44;61.84;101167.89;1749249;80;21537;-67
2020/12/06 10:43:39;;;;;;;20.60;10.35;;;;;;;0.54;61.86;101170.67;1763427;80;21124;-68
2020/12/06 10:46:10;;;;;;;22.95;10.20;;;;;;;0.61;61.27;101167.42;1777848;80;22271;-67
2020/12/06 10:48:39;;;;;;;24.70;11.63;;;;;;;0.63;61.43;101160.43;1773866;80;21129;-66
2020/12/06 10:51:27;;;;;;;23.77;10.35;;;;;;;0.70;61.65;101160.70;1764774;80;21535;-67
2020/12/06 10:54:02;;;;;;;23.25;10.58;;;;;;;0.78;61.12;101154.23;1683253;82;21626;-67
2020/12/06 10:56:31;;;;;;;30.50;9.83;;;;;;;0.78;60.71;101158.81;1692818;84;21146;-66
2020/12/06 10:59:19;;;;;;;20.37;9.53;;;;;;;0.81;60.97;101153.80;1701467;84;21205;-66
2020/12/06 11:01:56;;;;;;;29.82;9.38;;;;;;;0.89;61.02;101155.97;1727124;82;21127;-68
2020/12/06 11:04:25;;;;;;;19.60;9.60;;;;;;;0.94;60.74;101158.33;1714937;83;21168;-67
2020/12/06 11:06:53;;;;;;;19.65;9.15;;;;;;;1.01;60.28;101154.77;1710032;82;21597;-68
2020/12/06 11:09:38;;;;;;;31.23;10.58;;;;;;;1.01;59.93;101150.70;1681708;83;21613;-67
2020/12/06 11:12:11;;;;;;;20.95;9.80;;;;;;;1.00;59.87;101148.50;1687526;84;22124;-68
2020/12/06 11:14:40;;;;;;;29.92;10.10;;;;;;;1.01;59.58;101153.41;1663854;85;21593;-65
2020/12/06 11:17:10;;;;;;;18.98;10.48;;;;;;;1.00;59.42;101151.21;1674608;85;21191;-68
2020/12/06 11:19:40;;;;;;;23.62;10.72;;;;;;;1.00;59.26;101140.35;1692122;83;21162;-67
2020/12/06 11:22:09;;;;;;;21.20;9.50;;;;;;;1.04;59.24;101142.11;1662667;85;21142;-68
2020/12/06 11:24:36;;;;;;;18.82;8.68;;;;;;;1.10;59.41;101139.88;1695117;84;22348;-66
2020/12/06 11:27:12;;;;;;;19.52;10.45;;;;;;;1.18;58.77;101131.48;1690782;84;21179;-67
2020/12/06 11:30:01;;;;;;;20.20;9.25;;;;;;;1.26;58.99;101135.84;1693661;84;21140;-67
2020/12/06 11:32:29;;;;;;;21.75;9.38;;;;;;;1.38;58.76;101131.87;1700086;84;21590;-67
2020/12/06 11:34:58;;;;;;;22.30;10.03;;;;;;;1.50;58.38;101132.00;1696401;84;21227;-66
2020/12/06 11:37:27;;;;;;;21.68;9.55;;;;;;;1.59;58.23;101135.30;1689111;84;22189;-67
2020/12/06 11:40:01;;;;;;;;;;;;;;;1.69;58.17;101134.28;1699258;84;21124;-67
2020/12/06 11:42:31;;;;;;;16.95;7.90;;;;;;;1.81;57.88;101129.48;1692484;84;20225;-67
2020/12/06 11:44:59;;;;;;;18.82;7.92;;;;;;;1.90;57.47;101138.20;1694441;84;21161;-67
2020/12/06 11:47:29;;;;;;;20.00;8.63;;;;;;;1.97;57.08;101126.75;1689004;84;21126;-67
2020/12/06 11:49:57;;;;;;;14.20;8.53;;;;;;;2.04;57.05;101128.05;1695379;84;21731;-68
2020/12/06 11:52:30;;;;;;;20.15;9.35;;;;;;;2.14;56.69;101127.53;1691786;84;21137;-66
2020/12/06 11:55:03;;;;;;;13.40;7.53;;;;;;;2.21;56.12;101122.02;1698258;84;21613;-66